sensor_id;sensor_type;location;lat;lon;timestamp;pressure;altitude;pressure_sealevel;temperature;humidity
10646;BME280;5371;49.782;9.932;2023-02-12T00:02:25;101661.63;;;5.00;100.00
10646;BME280;5371;49.782;9.932;2023-02-12T00:04:54;101668.59;;;4.76;100.00
10646;BME280;5371;49.782;9.932;2023-02-12T00:07:21;101672.16;;;4.49;100.00
10646;BME280;5371;49.782;9.932;2023-02-12T00:09:49;101672.97;;;4.59;100.00
10646;BME280;5371;49.782;9.932;2023-02-12T00:12:16;101670.41;;;4.62;100.00
10646;BME280;5371;49.782;9.932;2023-02-12T00:14:43;101670.25;;;4.99;100.00
10646;BME280;5371;49.782;9.932;2023-02-12T00:17:10;101682.31;;;5.06;100.00
10646;BME280;5371;49.782;9.932;2023-02-12T00:19:37;101678.84;;;5.10;100.00
10646;BME280;5371;49.782;9.932;2023-02-12T00:22:05;101671.94;;;5.09;100.00
10646;BME280;5371;49.782;9.932;2023-02-12T00:24:32;101661.72;;;4.72;100.00
10646;BME280;5371;49.782;9.932;2023-02-12T00:27:00;101671.31;;;4.43;100.00
10646;BME280;5371;49.782;9.932;2023-02-12T00:29:27;101670.38;;;4.65;100.00
10646;BME280;5371;49.782;9.932;2023-02-12T00:31:54;101660.81;;;4.84;100.00
10646;BME280;5371;49.782;9.932;2023-02-12T00:34:21;101675.50;;;4.80;100.00
10646;BME280;5371;49.782;9.932;2023-02-12T00:36:48;101676.47;;;4.43;100.00
10646;BME280;5371;49.782;9.932;2023-02-12T00:39:17;101679.84;;;4.78;100.00
10646;BME280;5371;49.782;9.932;2023-02-12T00:41:44;101668.69;;;4.52;100.00
10646;BME280;5371;49.782;9.932;2023-02-12T00:44:11;101669.63;;;4.14;100.00
10646;BME280;5371;49.782;9.932;2023-02-12T00:46:38;101673.84;;;4.61;100.00
10646;BME280;5371;49.782;9.932;2023-02-12T00:49:05;101668.72;;;4.43;100.00
10646;BME280;5371;49.782;9.932;2023-02-12T00:51:32;101681.69;;;4.25;100.00
10646;BME280;5371;49.782;9.932;2023-02-12T00:53:59;101677.31;;;4.54;100.00
10646;BME280;5371;49.782;9.932;2023-02-12T00:56:27;101684.28;;;4.28;100.00
10646;BME280;5371;49.782;9.932;2023-02-12T00:58:54;101683.38;;;4.42;100.00
10646;BME280;5371;49.782;9.932;2023-02-12T01:01:21;101685.06;;;4.57;100.00
10646;BME280;5371;49.782;9.932;2023-02-12T01:03:48;101685.16;;;3.95;100.00
10646;BME280;5371;49.782;9.932;2023-02-12T01:06:15;101692.06;;;3.88;100.00
10646;BME280;5371;49.782;9.932;2023-02-12T01:08:45;101686.00;;;3.62;100.00
10646;BME280;5371;49.782;9.932;2023-02-12T01:11:12;101684.22;;;3.39;100.00
10646;BME280;5371;49.782;9.932;2023-02-12T01:13:41;101683.41;;;3.83;100.00
10646;BME280;5371;49.782;9.932;2023-02-12T01:16:12;101679.97;;;3.78;100.00
10646;BME280;5371;49.782;9.932;2023-02-12T01:18:40;101685.94;;;3.31;100.00
10646;BME280;5371;49.782;9.932;2023-02-12T01:21:09;101686.75;;;3.20;100.00
10646;BME280;5371;49.782;9.932;2023-02-12T01:23:36;101682.53;;;3.73;100.00
10646;BME280;5371;49.782;9.932;2023-02-12T01:26:03;101673.06;;;4.06;100.00
10646;BME280;5371;49.782;9.932;2023-02-12T01:28:32;101667.03;;;4.01;100.00
10646;BME280;5371;49.782;9.932;2023-02-12T01:31:01;101658.38;;;4.20;100.00
10646;BME280;5371;49.782;9.932;2023-02-12T01:33:29;101655.84;;;3.91;100.00
10646;BME280;5371;49.782;9.932;2023-02-12T01:35:56;101655.81;;;4.16;100.00
10646;BME280;5371;49.782;9.932;2023-02-12T01:38:24;101660.97;;;4.22;100.00
10646;BME280;5371;49.782;9.932;2023-02-12T01:40:51;101656.66;;;4.30;100.00
10646;BME280;5371;49.782;9.932;2023-02-12T01:43:18;101652.41;;;3.63;100.00
10646;BME280;5371;49.782;9.932;2023-02-12T01:45:50;101646.34;;;3.95;100.00
10646;BME280;5371;49.782;9.932;2023-02-12T01:48:25;101655.84;;;4.00;100.00
10646;BME280;5371;49.782;9.932;2023-02-12T01:50:54;101653.19;;;4.31;100.00
10646;BME280;5371;49.782;9.932;2023-02-12T01:53:24;101655.78;;;4.37;100.00
10646;BME280;5371;49.782;9.932;2023-02-12T01:55:57;101652.28;;;4.48;100.00
10646;BME280;5371;49.782;9.932;2023-02-12T01:58:29;101655.81;;;3.74;100.00
10646;BME280;5371;49.782;9.932;2023-02-12T02:01:00;101656.69;;;4.02;100.00
10646;BME280;5371;49.782;9.932;2023-02-12T02:03:32;101650.66;;;3.97;100.00
10646;BME280;5371;49.782;9.932;2023-02-12T02:06:03;101649.75;;;4.32;100.00
10646;BME280;5371;49.782;9.932;2023-02-12T02:08:33;101652.34;;;4.33;100.00
10646;BME280;5371;49.782;9.932;2023-02-12T02:11:00;101641.19;;;3.78;100.00
10646;BME280;5371;49.782;9.932;2023-02-12T02:13:47;101651.47;;;3.34;100.00
10646;BME280;5371;49.782;9.932;2023-02-12T02:16:34;101645.50;;;3.70;100.00
10646;BME280;5371;49.782;9.932;2023-02-12T02:19:08;101654.97;;;3.66;100.00
10646;BME280;5371;49.782;9.932;2023-02-12T02:21:50;101657.53;;;3.74;100.00
10646;BME280;5371;49.782;9.932;2023-02-12T02:25:01;101650.66;;;3.67;100.00
10646;BME280;5371;49.782;9.932;2023-02-12T02:27:40;101648.09;;;3.73;100.00
10646;BME280;5371;49.782;9.932;2023-02-12T02:30:23;101645.47;;;3.96;100.00
10646;BME280;5371;49.782;9.932;2023-02-12T02:33:09;101638.56;;;3.73;100.00
10646;BME280;5371;49.782;9.932;2023-02-12T02:35:44;101648.00;;;3.15;100.00
10646;BME280;5371;49.782;9.932;2023-02-12T02:38:21;101652.38;;;3.51;100.00
10646;BME280;5371;49.782;9.932;2023-02-12T02:40:53;101650.69;;;3.73;100.00
10646;BME280;5371;49.782;9.932;2023-02-12T02:43:27;101657.53;;;3.66;100.00
10646;BME280;5371;49.782;9.932;2023-02-12T02:46:00;101654.97;;;3.72;100.00
10646;BME280;5371;49.782;9.932;2023-02-12T02:48:33;101661.88;;;3.70;100.00
10646;BME280;5371;49.782;9.932;2023-02-12T02:51:04;101663.59;;;3.55;100.00
10646;BME280;5371;49.782;9.932;2023-02-12T02:53:34;101668.75;;;3.65;100.00
10646;BME280;5371;49.782;9.932;2023-02-12T02:56:06;101663.59;;;3.70;100.00
10646;BME280;5371;49.782;9.932;2023-02-12T02:58:36;101665.31;;;3.68;100.00
10646;BME280;5371;49.782;9.932;2023-02-12T03:01:08;101675.56;;;3.16;100.00
10646;BME280;5371;49.782;9.932;2023-02-12T03:03:42;101667.00;;;3.42;100.00
10646;BME280;5371;49.782;9.932;2023-02-12T03:06:18;101670.47;;;3.44;100.00
10646;BME280;5371;49.782;9.932;2023-02-12T03:08:57;101671.31;;;3.33;100.00
10646;BME280;5371;49.782;9.932;2023-02-12T03:11:29;101678.19;;;3.25;100.00
10646;BME280;5371;49.782;9.932;2023-02-12T03:14:03;101676.41;;;3.15;100.00
10646;BME280;5371;49.782;9.932;2023-02-12T03:16:37;101674.53;;;2.72;100.00
10646;BME280;5371;49.782;9.932;2023-02-12T03:19:07;101677.88;;;2.54;100.00
10646;BME280;5371;49.782;9.932;2023-02-12T03:21:40;101682.31;;;2.78;100.00
10646;BME280;5371;49.782;9.932;2023-02-12T03:24:11;101677.22;;;2.96;100.00
10646;BME280;5371;49.782;9.932;2023-02-12T03:26:45;101677.81;;;2.43;100.00
10646;BME280;5371;49.782;9.932;2023-02-12T03:29:13;101675.22;;;2.43;100.00
10646;BME280;5371;49.782;9.932;2023-02-12T03:31:50;101685.63;;;2.55;100.00
10646;BME280;5371;49.782;9.932;2023-02-12T03:34:25;101680.56;;;2.71;100.00
10646;BME280;5371;49.782;9.932;2023-02-12T03:36:59;101678.84;;;2.76;100.00
10646;BME280;5371;49.782;9.932;2023-02-12T03:39:31;101683.13;;;2.69;100.00
10646;BME280;5371;49.782;9.932;2023-02-12T03:42:04;101683.19;;;2.86;100.00
10646;BME280;5371;49.782;9.932;2023-02-12T03:44:42;101689.97;;;2.61;100.00
10646;BME280;5371;49.782;9.932;2023-02-12T03:47:20;101689.75;;;2.26;100.00
10646;BME280;5371;49.782;9.932;2023-02-12T03:49:54;101689.94;;;2.55;100.00
10646;BME280;5371;49.782;9.932;2023-02-12T03:52:25;101680.22;;;2.19;100.00
10646;BME280;5371;49.782;9.932;2023-02-12T03:54:52;101685.41;;;2.20;100.00
10646;BME280;5371;49.782;9.932;2023-02-12T03:57:21;101677.72;;;2.27;100.00
10646;BME280;5371;49.782;9.932;2023-02-12T03:59:50;101684.03;;;2.80;100.00
10646;BME280;5371;49.782;9.932;2023-02-12T04:02:18;101684.03;;;2.79;100.00
10646;BME280;5371;49.782;9.932;2023-02-12T04:04:46;101684.97;;;2.97;100.00
10646;BME280;5371;49.782;9.932;2023-02-12T04:07:13;101691.81;;;2.86;100.00
10646;BME280;5371;49.782;9.932;2023-02-12T04:09:41;101692.50;;;2.56;100.00
10646;BME280;5371;49.782;9.932;2023-02-12T04:12:22;101690.66;;;2.34;100.00
10646;BME280;5371;49.782;9.932;2023-02-12T04:14:54;101682.78;;;2.14;100.00
10646;BME280;5371;49.782;9.932;2023-02-12T04:17:31;101690.59;;;2.25;100.00
10646;BME280;5371;49.782;9.932;2023-02-12T04:20:08;101688.88;;;2.24;100.00
10646;BME280;5371;49.782;9.932;2023-02-12T04:22:45;101696.84;;;2.59;100.00
10646;BME280;5371;49.782;9.932;2023-02-12T04:25:25;101706.25;;;2.55;100.00
10646;BME280;5371;49.782;9.932;2023-02-12T04:28:05;101698.34;;;2.28;100.00
10646;BME280;5371;49.782;9.932;2023-02-12T04:30:36;101700.88;;;2.22;100.00
10646;BME280;5371;49.782;9.932;2023-02-12T04:33:08;101704.59;;;2.62;100.00
10646;BME280;5371;49.782;9.932;2023-02-12T04:35:41;101695.69;;;2.19;100.00
10646;BME280;5371;49.782;9.932;2023-02-12T04:38:12;101698.22;;;2.11;100.00
10646;BME280;5371;49.782;9.932;2023-02-12T04:40:43;101704.09;;;1.91;100.00
10646;BME280;5371;49.782;9.932;2023-02-12T04:43:10;101702.44;;;2.02;100.00
10646;BME280;5371;49.782;9.932;2023-02-12T04:45:37;101694.03;;;2.29;100.00
10646;BME280;5371;49.782;9.932;2023-02-12T04:48:05;101704.50;;;2.45;100.00
10646;BME280;5371;49.782;9.932;2023-02-12T04:50:38;101706.91;;;2.21;100.00
10646;BME280;5371;49.782;9.932;2023-02-12T04:53:06;101705.88;;;1.98;100.00
10646;BME280;5371;49.782;9.932;2023-02-12T04:55:33;101708.38;;;1.88;100.00
10646;BME280;5371;49.782;9.932;2023-02-12T04:58:00;101708.50;;;2.05;100.00
10646;BME280;5371;49.782;9.932;2023-02-12T05:00:27;101707.00;;;2.35;100.00
10646;BME280;5371;49.782;9.932;2023-02-12T05:02:54;101713.94;;;2.46;100.00
10646;BME280;5371;49.782;9.932;2023-02-12T05:05:21;101715.34;;;2.02;100.00
10646;BME280;5371;49.782;9.932;2023-02-12T05:07:50;101716.09;;;1.88;100.00
10646;BME280;5371;49.782;9.932;2023-02-12T05:10:17;101721.19;;;1.79;100.00
10646;BME280;5371;49.782;9.932;2023-02-12T05:12:44;101711.53;;;1.60;100.00
10646;BME280;5371;49.782;9.932;2023-02-12T05:15:11;101712.72;;;1.96;100.00
10646;BME280;5371;49.782;9.932;2023-02-12T05:17:38;101708.56;;;2.13;100.00
10646;BME280;5371;49.782;9.932;2023-02-12T05:20:06;101712.53;;;1.74;100.00
10646;BME280;5371;49.782;9.932;2023-02-12T05:22:33;101709.69;;;1.48;100.00
10646;BME280;5371;49.782;9.932;2023-02-12T05:25:01;101705.53;;;1.64;100.00
10646;BME280;5371;49.782;9.932;2023-02-12T05:27:28;101713.94;;;1.43;100.00
10646;BME280;5371;49.782;9.932;2023-02-12T05:29:55;101716.41;;;1.33;100.00
10646;BME280;5371;49.782;9.932;2023-02-12T05:32:22;101717.22;;;1.29;100.00
10646;BME280;5371;49.782;9.932;2023-02-12T05:34:49;101720.78;;;1.41;100.00
10646;BME280;5371;49.782;9.932;2023-02-12T05:37:16;101717.59;;;1.65;100.00
10646;BME280;5371;49.782;9.932;2023-02-12T05:39:43;101715.25;;;1.90;100.00
10646;BME280;5371;49.782;9.932;2023-02-12T05:42:14;101726.66;;;1.28;100.00
10646;BME280;5371;49.782;9.932;2023-02-12T05:44:41;101730.88;;;1.22;100.00
10646;BME280;5371;49.782;9.932;2023-02-12T05:47:09;101736.44;;;1.58;100.00
10646;BME280;5371;49.782;9.932;2023-02-12T05:49:36;101731.91;;;1.36;100.00
10646;BME280;5371;49.782;9.932;2023-02-12T05:52:03;101730.09;;;1.27;100.00
10646;BME280;5371;49.782;9.932;2023-02-12T05:54:30;101742.91;;;1.23;100.00
10646;BME280;5371;49.782;9.932;2023-02-12T05:56:57;101744.31;;;1.70;100.00
10646;BME280;5371;49.782;9.932;2023-02-12T05:59:25;101738.03;;;1.47;100.00
10646;BME280;5371;49.782;9.932;2023-02-12T06:01:52;101749.97;;;1.39;100.00
10646;BME280;5371;49.782;9.932;2023-02-12T06:04:20;101748.22;;;1.38;100.00
10646;BME280;5371;49.782;9.932;2023-02-12T06:06:48;101749.16;;;1.43;100.00
10646;BME280;5371;49.782;9.932;2023-02-12T06:09:15;101752.38;;;1.24;100.00
10646;BME280;5371;49.782;9.932;2023-02-12T06:11:43;101745.63;;;1.35;100.00
10646;BME280;5371;49.782;9.932;2023-02-12T06:14:12;101751.06;;;1.59;100.00
10646;BME280;5371;49.782;9.932;2023-02-12T06:16:43;101749.44;;;1.69;100.00
10646;BME280;5371;49.782;9.932;2023-02-12T06:19:10;101754.81;;;1.93;100.00
10646;BME280;5371;49.782;9.932;2023-02-12T06:21:37;101751.53;;;2.08;100.00
10646;BME280;5371;49.782;9.932;2023-02-12T06:24:04;101761.72;;;1.96;100.00
10646;BME280;5371;49.782;9.932;2023-02-12T06:26:31;101766.78;;;1.85;100.00
10646;BME280;5371;49.782;9.932;2023-02-12T06:28:59;101758.25;;;1.91;100.00
10646;BME280;5371;49.782;9.932;2023-02-12T06:31:28;101760.88;;;1.97;100.00
10646;BME280;5371;49.782;9.932;2023-02-12T06:33:58;101766.16;;;2.12;100.00
10646;BME280;5371;49.782;9.932;2023-02-12T06:36:26;101770.69;;;2.40;100.00
10646;BME280;5371;49.782;9.932;2023-02-12T06:38:53;101759.53;;;2.41;100.00
10646;BME280;5371;49.782;9.932;2023-02-12T06:41:21;101771.53;;;2.38;100.00
10646;BME280;5371;49.782;9.932;2023-02-12T06:43:48;101769.56;;;2.06;100.00
10646;BME280;5371;49.782;9.932;2023-02-12T06:46:15;101774.97;;;2.38;100.00
10646;BME280;5371;49.782;9.932;2023-02-12T06:48:42;101775.88;;;2.42;100.00
10646;BME280;5371;49.782;9.932;2023-02-12T06:51:13;101777.50;;;2.26;100.00
10646;BME280;5371;49.782;9.932;2023-02-12T06:53:41;101775.81;;;2.33;100.00
10646;BME280;5371;49.782;9.932;2023-02-12T06:56:10;101775.78;;;2.30;100.00
10646;BME280;5371;49.782;9.932;2023-02-12T06:58:38;101780.53;;;1.84;100.00
10646;BME280;5371;49.782;9.932;2023-02-12T07:01:09;101780.06;;;2.26;100.00
10646;BME280;5371;49.782;9.932;2023-02-12T07:03:38;101775.88;;;2.42;100.00
10646;BME280;5371;49.782;9.932;2023-02-12T07:06:06;101786.22;;;2.42;100.00
10646;BME280;5371;49.782;9.932;2023-02-12T07:08:35;101778.44;;;2.39;100.00
10646;BME280;5371;49.782;9.932;2023-02-12T07:11:02;101782.00;;;2.54;100.00
10646;BME280;5371;49.782;9.932;2023-02-12T07:13:29;101789.81;;;2.62;100.00
10646;BME280;5371;49.782;9.932;2023-02-12T07:15:56;101792.19;;;2.36;100.00
10646;BME280;5371;49.782;9.932;2023-02-12T07:18:23;101798.78;;;2.04;100.00
10646;BME280;5371;49.782;9.932;2023-02-12T07:20:50;101794.69;;;2.25;100.00
10646;BME280;5371;49.782;9.932;2023-02-12T07:23:16;101802.94;;;1.90;100.00
10646;BME280;5371;49.782;9.932;2023-02-12T07:25:53;101808.53;;;2.35;100.00
10646;BME280;5371;49.782;9.932;2023-02-12T07:28:20;101802.66;;;2.54;100.00
10646;BME280;5371;49.782;9.932;2023-02-12T07:30:47;101808.78;;;2.70;100.00
10646;BME280;5371;49.782;9.932;2023-02-12T07:33:14;101804.47;;;2.68;100.00
10646;BME280;5371;49.782;9.932;2023-02-12T07:35:41;101810.66;;;2.89;100.00
10646;BME280;5371;49.782;9.932;2023-02-12T07:38:08;101807.75;;;2.48;100.00
10646;BME280;5371;49.782;9.932;2023-02-12T07:40:35;101810.16;;;2.25;100.00
10646;BME280;5371;49.782;9.932;2023-02-12T07:43:03;101811.66;;;2.02;100.00
10646;BME280;5371;49.782;9.932;2023-02-12T07:45:34;101810.94;;;2.17;100.00
10646;BME280;5371;49.782;9.932;2023-02-12T07:48:01;101815.22;;;2.15;100.00
10646;BME280;5371;49.782;9.932;2023-02-12T07:50:28;101820.31;;;2.10;100.00
10646;BME280;5371;49.782;9.932;2023-02-12T07:52:55;101820.34;;;2.12;100.00
10646;BME280;5371;49.782;9.932;2023-02-12T07:55:21;101822.25;;;2.31;100.00
10646;BME280;5371;49.782;9.932;2023-02-12T07:57:48;101824.31;;;2.75;100.00
10646;BME280;5371;49.782;9.932;2023-02-12T08:00:18;101823.66;;;3.06;100.00
10646;BME280;5371;49.782;9.932;2023-02-12T08:02:50;101828.06;;;3.24;100.00
10646;BME280;5371;49.782;9.932;2023-02-12T08:05:17;101820.41;;;3.50;100.00
10646;BME280;5371;49.782;9.932;2023-02-12T08:07:44;101822.69;;;2.87;100.00
10646;BME280;5371;49.782;9.932;2023-02-12T08:10:11;101833.19;;;3.19;100.00
10646;BME280;5371;49.782;9.932;2023-02-12T08:12:38;101832.19;;;2.90;100.00
10646;BME280;5371;49.782;9.932;2023-02-12T08:15:06;101834.13;;;3.30;100.00
10646;BME280;5371;49.782;9.932;2023-02-12T08:17:34;101834.66;;;2.76;100.00
10646;BME280;5371;49.782;9.932;2023-02-12T08:20:02;101832.00;;;2.67;100.00
10646;BME280;5371;49.782;9.932;2023-02-12T08:22:29;101831.06;;;2.57;100.00
10646;BME280;5371;49.782;9.932;2023-02-12T08:24:56;101833.59;;;2.50;100.00
10646;BME280;5371;49.782;9.932;2023-02-12T08:27:22;101838.00;;;2.64;100.00
10646;BME280;5371;49.782;9.932;2023-02-12T08:29:49;101840.84;;;3.03;100.00
10646;BME280;5371;49.782;9.932;2023-02-12T08:32:17;101839.34;;;3.43;100.00
10646;BME280;5371;49.782;9.932;2023-02-12T08:34:45;101834.13;;;3.30;100.00
10646;BME280;5371;49.782;9.932;2023-02-12T08:37:36;101845.56;;;3.89;100.00
10646;BME280;5371;49.782;9.932;2023-02-12T08:40:04;101847.16;;;3.52;100.00
10646;BME280;5371;49.782;9.932;2023-02-12T08:42:31;101845.00;;;2.82;100.00
10646;BME280;5371;49.782;9.932;2023-02-12T08:44:58;101843.28;;;2.78;100.00
10646;BME280;5371;49.782;9.932;2023-02-12T08:47:25;101840.91;;;3.09;100.00
10646;BME280;5371;49.782;9.932;2023-02-12T08:49:54;101847.22;;;3.74;100.00
10646;BME280;5371;49.782;9.932;2023-02-12T08:52:21;101851.63;;;4.04;100.00
10646;BME280;5371;49.782;9.932;2023-02-12T08:54:48;101851.66;;;4.17;100.00
10646;BME280;5371;49.782;9.932;2023-02-12T08:57:16;101856.84;;;4.17;100.00
10646;BME280;5371;49.782;9.932;2023-02-12T08:59:43;101848.22;;;4.57;100.00
10646;BME280;5371;49.782;9.932;2023-02-12T09:02:10;101854.28;;;4.45;100.00
10646;BME280;5371;49.782;9.932;2023-02-12T09:04:37;101852.56;;;4.82;100.00
10646;BME280;5371;49.782;9.932;2023-02-12T09:07:06;101852.53;;;5.01;100.00
10646;BME280;5371;49.782;9.932;2023-02-12T09:09:32;101861.13;;;5.18;100.00
10646;BME280;5371;49.782;9.932;2023-02-12T09:11:59;101851.63;;;5.18;100.00
10646;BME280;5371;49.782;9.932;2023-02-12T09:14:26;101852.44;;;5.28;100.00
10646;BME280;5371;49.782;9.932;2023-02-12T09:16:53;101853.41;;;4.89;100.00
10646;BME280;5371;49.782;9.932;2023-02-12T09:19:22;101859.41;;;4.13;100.00
10646;BME280;5371;49.782;9.932;2023-02-12T09:21:53;101861.97;;;3.98;100.00
10646;BME280;5371;49.782;9.932;2023-02-12T09:24:22;101859.44;;;4.33;100.00
10646;BME280;5371;49.782;9.932;2023-02-12T09:26:49;101848.16;;;5.12;100.00
10646;BME280;5371;49.782;9.932;2023-02-12T09:29:16;101848.94;;;5.49;100.00
10646;BME280;5371;49.782;9.932;2023-02-12T09:31:43;101847.97;;;5.70;100.00
10646;BME280;5371;49.782;9.932;2023-02-12T09:34:10;101849.78;;;5.49;100.00
10646;BME280;5371;49.782;9.932;2023-02-12T09:36:37;101838.63;;;5.31;100.00
10646;BME280;5371;49.782;9.932;2023-02-12T09:39:04;101851.59;;;5.35;100.00
10646;BME280;5371;49.782;9.932;2023-02-12T09:41:49;101855.16;;;4.79;100.00
10646;BME280;5371;49.782;9.932;2023-02-12T09:44:28;101851.63;;;5.17;100.00
10646;BME280;5371;49.782;9.932;2023-02-12T09:47:01;101847.13;;;5.71;100.00
10646;BME280;5371;49.782;9.932;2023-02-12T09:49:43;101849.09;;;4.74;100.00
10646;BME280;5371;49.782;9.932;2023-02-12T09:52:17;101849.09;;;4.61;100.00
10646;BME280;5371;49.782;9.932;2023-02-12T09:54:45;101845.66;;;4.54;100.00
10646;BME280;5371;49.782;9.932;2023-02-12T09:57:18;101849.97;;;4.49;100.00
10646;BME280;5371;49.782;9.932;2023-02-12T09:59:50;101851.66;;;4.96;100.00
10646;BME280;5371;49.782;9.932;2023-02-12T10:02:19;101840.44;;;4.83;100.00
10646;BME280;5371;49.782;9.932;2023-02-12T10:04:48;101841.91;;;5.75;100.00
10646;BME280;5371;49.782;9.932;2023-02-12T10:07:24;101838.13;;;6.32;100.00
10646;BME280;5371;49.782;9.932;2023-02-12T10:10:05;101842.22;;;6.61;100.00
10646;BME280;5371;49.782;9.932;2023-02-12T10:12:46;101843.13;;;6.57;100.00
10646;BME280;5371;49.782;9.932;2023-02-12T10:15:31;101843.19;;;6.49;100.00
10646;BME280;5371;49.782;9.932;2023-02-12T10:18:09;101833.31;;;6.89;100.00
10646;BME280;5371;49.782;9.932;2023-02-12T10:20:51;101833.25;;;6.94;100.00
10646;BME280;5371;49.782;9.932;2023-02-12T10:23:34;101831.38;;;7.09;100.00
10646;BME280;5371;49.782;9.932;2023-02-12T10:26:12;101833.88;;;6.22;100.00
10646;BME280;5371;49.782;9.932;2023-02-12T10:28:45;101831.00;;;6.57;100.00
10646;BME280;5371;49.782;9.932;2023-02-12T10:31:16;101834.56;;;7.36;100.00
10646;BME280;5371;49.782;9.932;2023-02-12T10:33:49;101829.91;;;7.61;100.00
10646;BME280;5371;49.782;9.932;2023-02-12T10:36:26;101832.03;;;7.96;100.00
10646;BME280;5371;49.782;9.932;2023-02-12T10:39:00;101826.59;;;8.11;100.00
10646;BME280;5371;49.782;9.932;2023-02-12T10:41:30;101816.91;;;8.20;100.00
10646;BME280;5371;49.782;9.932;2023-02-12T10:43:59;101823.03;;;8.18;100.00
10646;BME280;5371;49.782;9.932;2023-02-12T10:46:29;101825.72;;;8.12;100.00
10646;BME280;5371;49.782;9.932;2023-02-12T10:48:58;101824.69;;;8.22;100.00
10646;BME280;5371;49.782;9.932;2023-02-12T10:51:40;101817.97;;;8.09;100.00
10646;BME280;5371;49.782;9.932;2023-02-12T10:54:30;101809.81;;;8.32;100.00
10646;BME280;5371;49.782;9.932;2023-02-12T10:56:58;101819.34;;;8.34;100.00
10646;BME280;5371;49.782;9.932;2023-02-12T10:59:32;101814.72;;;8.50;100.00
10646;BME280;5371;49.782;9.932;2023-02-12T11:01:59;101816.53;;;9.40;100.00
10646;BME280;5371;49.782;9.932;2023-02-12T11:04:29;101807.91;;;9.78;100.00
10646;BME280;5371;49.782;9.932;2023-02-12T11:06:59;101815.00;;;9.73;100.00
10646;BME280;5371;49.782;9.932;2023-02-12T11:09:29;101813.22;;;10.12;100.00
10646;BME280;5371;49.782;9.932;2023-02-12T11:11:57;101810.47;;;10.20;100.00
10646;BME280;5371;49.782;9.932;2023-02-12T11:14:25;101818.88;;;9.54;100.00
10646;BME280;5371;49.782;9.932;2023-02-12T11:16:55;101812.06;;;9.47;100.00
10646;BME280;5371;49.782;9.932;2023-02-12T11:19:25;101810.25;;;9.90;100.00
10646;BME280;5371;49.782;9.932;2023-02-12T11:22:05;101793.84;;;8.53;100.00
10646;BME280;5371;49.782;9.932;2023-02-12T11:24:34;101793.06;;;8.95;100.00
10646;BME280;5371;49.782;9.932;2023-02-12T11:27:12;101793.59;;;8.13;100.00
10646;BME280;5371;49.782;9.932;2023-02-12T11:29:43;101786.63;;;9.13;100.00
10646;BME280;5371;49.782;9.932;2023-02-12T11:32:16;101788.34;;;8.16;100.00
10646;BME280;5371;49.782;9.932;2023-02-12T11:35:03;101781.72;;;7.94;100.00
10646;BME280;5371;49.782;9.932;2023-02-12T11:37:32;101787.31;;;8.26;100.00
10646;BME280;5371;49.782;9.932;2023-02-12T11:40:02;101772.72;;;9.56;100.00
10646;BME280;5371;49.782;9.932;2023-02-12T11:42:34;101779.75;;;9.92;100.00
10646;BME280;5371;49.782;9.932;2023-02-12T11:45:03;101771.53;;;10.07;100.00
10646;BME280;5371;49.782;9.932;2023-02-12T11:47:34;101780.13;;;9.34;100.00
10646;BME280;5371;49.782;9.932;2023-02-12T11:50:06;101769.84;;;9.66;100.00
10646;BME280;5371;49.782;9.932;2023-02-12T11:52:36;101775.25;;;9.17;100.00
10646;BME280;5371;49.782;9.932;2023-02-12T11:55:17;101769.16;;;9.58;100.00
10646;BME280;5371;49.782;9.932;2023-02-12T11:57:48;101762.16;;;10.36;100.00
10646;BME280;5371;49.782;9.932;2023-02-12T12:00:17;101763.06;;;10.67;100.00
10646;BME280;5371;49.782;9.932;2023-02-12T12:02:57;101754.69;;;11.47;100.00
10646;BME280;5371;49.782;9.932;2023-02-12T12:05:31;101744.97;;;12.34;100.00
10646;BME280;5371;49.782;9.932;2023-02-12T12:08:03;101751.25;;;11.17;100.00
10646;BME280;5371;49.782;9.932;2023-02-12T12:10:34;101749.97;;;11.60;100.00
10646;BME280;5371;49.782;9.932;2023-02-12T12:13:08;101725.81;;;12.06;100.00
10646;BME280;5371;49.782;9.932;2023-02-12T12:15:42;101737.97;;;13.33;96.49
10646;BME280;5371;49.782;9.932;2023-02-12T12:18:33;101727.25;;;14.26;88.17
10646;BME280;5371;49.782;9.932;2023-02-12T12:21:25;101737.19;;;15.01;81.96
10646;BME280;5371;49.782;9.932;2023-02-12T12:23:56;101727.69;;;15.73;77.76
10646;BME280;5371;49.782;9.932;2023-02-12T12:26:27;101728.03;;;15.28;80.09
10646;BME280;5371;49.782;9.932;2023-02-12T12:29:00;101740.00;;;14.96;81.44
10646;BME280;5371;49.782;9.932;2023-02-12T12:31:33;101724.19;;;14.15;85.47
10646;BME280;5371;49.782;9.932;2023-02-12T12:34:08;101730.25;;;13.05;95.59
10646;BME280;5371;49.782;9.932;2023-02-12T12:36:52;101740.81;;;13.50;91.59
10646;BME280;5371;49.782;9.932;2023-02-12T12:39:27;101729.78;;;12.69;95.59
10646;BME280;5371;49.782;9.932;2023-02-12T12:45:13;101725.34;;;10.09;100.00
10646;BME280;5371;49.782;9.932;2023-02-12T12:47:55;101724.84;;;11.25;100.00
10646;BME280;5371;49.782;9.932;2023-02-12T12:50:50;101718.38;;;10.44;100.00
10646;BME280;5371;49.782;9.932;2023-02-12T12:53:39;101715.09;;;11.01;100.00
10646;BME280;5371;49.782;9.932;2023-02-12T12:56:32;101709.00;;;10.68;100.00
10646;BME280;5371;49.782;9.932;2023-02-12T12:59:16;101710.13;;;10.59;100.00
10646;BME280;5371;49.782;9.932;2023-02-12T13:02:02;101709.78;;;10.03;100.00
10646;BME280;5371;49.782;9.932;2023-02-12T13:04:50;101714.72;;;10.16;100.00
10646;BME280;5371;49.782;9.932;2023-02-12T13:07:35;101708.94;;;10.03;100.00
10646;BME280;5371;49.782;9.932;2023-02-12T13:10:24;101714.56;;;9.86;100.00
10646;BME280;5371;49.782;9.932;2023-02-12T13:13:05;101710.66;;;10.04;100.00
10646;BME280;5371;49.782;9.932;2023-02-12T13:15:42;101707.84;;;9.76;100.00
10646;BME280;5371;49.782;9.932;2023-02-12T13:18:22;101704.06;;;9.51;100.00
10646;BME280;5371;49.782;9.932;2023-02-12T13:20:56;101709.59;;;8.97;100.00
10646;BME280;5371;49.782;9.932;2023-02-12T13:23:34;101719.94;;;9.42;100.00
10646;BME280;5371;49.782;9.932;2023-02-12T13:26:11;101720.34;;;9.63;100.00